.
WxDataArchive / Data Records for 2006-01-12
2006-01-11 January 2006 2006-01-13

Data Records for Thursday, 12 January 2006

Time	Temp	Chill	HIndex	Humid	Dewpt	 Wind 	HiWind	WindDir	Rain 	Barom 
-----	----	-----	------	-----	-----	------	------	-------	-----	----- 
00:00	36.9	36.9	36.9	83	32.2	1	3	248	0.00	29.845 
00:05	36.9	36.9	36.9	83	32.2	1	3	248	0.00	29.845 
00:10	37.0	37.0	37.0	82	32.0	2	5	248	0.00	29.845 
00:15	37.3	37.3	37.3	81	32.0	2	5	248	0.00	29.845 
00:20	37.5	37.5	37.5	81	32.2	2	6	248	0.00	29.845 
00:25	37.8	37.8	37.8	80	32.2	3	6	248	0.00	29.845 
00:30	37.9	37.9	37.9	79	32.0	3	6	248	0.00	29.845 
00:35	38.0	38.0	38.0	78	31.8	2	5	248	0.00	29.845 
00:40	38.2	38.2	38.2	78	32.0	3	6	248	0.00	29.845 
00:45	38.3	38.3	38.3	77	31.7	3	9	248	0.00	29.843 
00:50	38.5	38.5	38.5	77	31.9	3	7	248	0.00	29.843 
00:55	38.5	38.5	38.5	77	31.9	3	11	248	0.00	29.843 
01:00	38.6	38.6	38.6	76	31.7	3	11	248	0.00	29.843 
01:05	38.8	38.8	38.8	76	31.9	3	9	248	0.00	29.843 
01:10	38.8	38.8	38.8	76	31.9	3	7	248	0.00	29.843 
01:15	38.8	38.8	38.8	80	33.2	3	9	248	0.00	29.843 
01:20	38.9	38.9	38.9	76	32.0	3	9	248	0.00	29.843 
01:25	39.1	36.3	39.1	75	31.9	4	10	248	0.00	29.843 
01:30	38.9	38.9	38.9	75	31.7	3	7	248	0.00	29.843 
01:35	38.9	36.0	38.9	75	31.7	4	11	248	0.00	29.843 
01:40	38.8	38.8	38.8	75	31.6	3	5	248	0.00	29.843 
01:45	38.9	35.2	38.9	75	31.7	5	12	248	0.00	29.842 
01:50	38.9	36.0	38.9	75	31.7	4	10	248	0.00	29.842 
01:55	38.8	35.9	38.8	75	31.6	4	10	248	0.00	29.842 
02:00	38.8	35.9	38.8	75	31.6	4	10	248	0.00	29.840 
02:05	38.8	38.8	38.8	75	31.6	3	7	248	0.00	29.840 
02:10	38.8	38.8	38.8	75	31.6	3	9	248	0.00	29.840 
02:15	38.8	35.9	38.8	75	31.6	4	10	248	0.00	29.839 
02:20	38.8	35.1	38.8	75	31.6	5	10	248	0.00	29.839 
02:25	38.8	35.9	38.8	74	31.2	4	10	248	0.00	29.839 
02:30	38.9	36.0	38.9	74	31.3	4	10	248	0.00	29.841 
02:35	38.8	35.9	38.8	74	31.2	4	7	248	0.00	29.841 
02:40	38.8	38.8	38.8	74	31.2	3	9	270	0.00	29.841 
02:45	38.6	38.6	38.6	75	31.4	3	7	248	0.00	29.842 
02:50	38.6	38.6	38.6	74	31.0	3	9	248	0.00	29.842 
02:55	38.8	35.9	38.8	74	31.2	4	8	248	0.00	29.842 
03:00	38.8	38.8	38.8	74	31.2	3	7	248	0.00	29.844 
03:05	38.6	38.6	38.6	74	31.0	3	6	248	0.00	29.844 
03:10	38.6	38.6	38.6	74	31.0	3	6	248	0.00	29.844 
03:15	38.6	38.6	38.6	74	31.0	3	6	248	0.00	29.845 
03:20	38.8	35.1	38.8	73	30.9	5	11	248	0.00	29.845 
03:25	38.8	35.9	38.8	73	30.9	4	11	248	0.00	29.845 
03:30	38.8	38.8	38.8	74	31.2	3	11	248	0.00	29.846 
03:35	38.8	35.9	38.8	73	30.9	4	11	248	0.00	29.846 
03:40	38.8	38.8	38.8	73	30.9	3	9	248	0.00	29.846 
03:45	38.8	35.9	38.8	73	30.9	4	10	248	0.00	29.846 
03:50	38.6	38.6	38.6	74	31.0	3	7	248	0.00	29.846 
03:55	38.6	38.6	38.6	74	31.0	3	7	248	0.00	29.846 
04:00	38.5	38.5	38.5	74	30.9	3	6	248	0.00	29.845 
04:05	38.6	35.7	38.6	74	31.0	4	10	248	0.00	29.845 
04:10	38.5	38.5	38.5	74	30.9	3	7	248	0.00	29.845 
04:15	38.5	38.5	38.5	74	30.9	3	6	248	0.00	29.839 
04:20	38.3	35.4	38.3	74	30.8	4	9	248	0.00	29.839 
04:25	38.3	35.4	38.3	74	30.8	4	10	248	0.00	29.839 
04:30	38.3	35.4	38.3	74	30.8	4	11	248	0.00	29.835 
04:35	38.3	38.3	38.3	75	31.1	3	9	248	0.00	29.835 
04:40	38.2	38.2	38.2	75	31.0	3	6	248	0.00	29.835 
04:45	38.2	38.2	38.2	75	31.0	3	11	248	0.00	29.833 
04:50	38.0	38.0	38.0	75	30.8	3	7	248	0.00	29.833 
04:55	38.0	38.0	38.0	75	30.8	3	9	248	0.00	29.833 
05:00	38.0	38.0	38.0	75	30.8	3	7	248	0.00	29.829 
05:05	38.0	38.0	38.0	75	30.8	3	8	248	0.00	29.829 
05:10	38.0	35.0	38.0	75	30.8	4	7	248	0.00	29.829 
05:15	37.9	34.9	37.9	76	31.0	4	12	248	0.00	29.829 
05:20	37.9	34.9	37.9	76	31.0	4	7	248	0.00	29.829 
05:25	37.9	37.9	37.9	76	31.0	3	10	248	0.00	29.829 
05:30	37.8	37.8	37.8	76	30.9	3	8	248	0.00	29.829 
05:35	37.8	34.8	37.8	76	30.9	4	12	248	0.00	29.829 
05:40	37.9	34.0	37.9	76	31.0	5	10	248	0.00	29.829 
05:45	37.9	34.0	37.9	75	30.7	5	10	248	0.00	29.829 
05:50	37.9	34.9	37.9	76	31.0	4	13	248	0.00	29.829 
05:55	37.8	34.8	37.8	76	30.9	4	10	248	0.00	29.829 
06:00	37.8	34.8	37.8	76	30.9	4	7	248	0.00	29.830 
06:05	37.8	34.8	37.8	76	30.9	4	8	248	0.00	29.830 
06:10	37.8	33.9	37.8	76	30.9	5	10	248	0.00	29.830 
06:15	37.8	34.8	37.8	76	30.9	4	7	248	0.00	29.830 
06:20	37.6	37.6	37.6	76	30.7	3	7	248	0.00	29.830 
06:25	37.6	37.6	37.6	77	31.1	3	7	248	0.00	29.830 
06:30	37.6	37.6	37.6	77	31.1	3	7	248	0.00	29.832 
06:35	37.6	37.6	37.6	77	31.1	3	7	248	0.00	29.832 
06:40	37.5	37.5	37.5	77	31.0	3	7	248	0.00	29.832 
06:45	37.5	37.5	37.5	77	31.0	3	6	248	0.00	29.836 
06:50	37.5	37.5	37.5	77	31.0	3	5	248	0.00	29.836 
06:55	37.5	37.5	37.5	77	31.0	3	9	248	0.00	29.836 
07:00	37.5	37.5	37.5	77	31.0	2	5	248	0.00	29.843 
07:05	37.3	37.3	37.3	78	31.1	2	4	248	0.00	29.843 
07:10	37.5	37.5	37.5	77	31.0	3	6	248	0.00	29.843 
07:15	37.5	37.5	37.5	77	31.0	2	4	248	0.00	29.844 
07:20	37.5	37.5	37.5	78	31.3	3	4	248	0.00	29.844 
07:25	37.3	37.3	37.3	78	31.1	2	6	248	0.00	29.844 
07:30	37.3	37.3	37.3	78	31.1	2	6	248	0.00	29.848 
07:35	37.3	37.3	37.3	78	31.1	3	5	248	0.00	29.848 
07:40	37.3	37.3	37.3	78	31.1	3	9	248	0.00	29.848 
07:45	37.5	37.5	37.5	78	31.3	3	6	248	0.00	29.853 
07:50	37.5	37.5	37.5	78	31.3	3	7	248	0.00	29.853 
07:55	37.5	37.5	37.5	78	31.3	3	7	248	0.00	29.853 
08:00	37.6	37.6	37.6	78	31.4	3	7	248	0.00	29.854 
08:05	37.6	37.6	37.6	78	31.4	3	10	248	0.00	29.854 
08:10	37.6	37.6	37.6	78	31.4	3	10	248	0.00	29.854 
08:15	37.6	37.6	37.6	78	31.4	3	7	248	0.00	29.858 
08:20	37.6	37.6	37.6	78	31.4	3	6	248	0.00	29.858 
08:25	37.8	37.8	37.8	78	31.6	3	7	248	0.00	29.858 
08:30	37.8	37.8	37.8	78	31.6	2	5	248	0.00	29.858 
08:35	37.9	37.9	37.9	78	31.7	3	7	248	0.00	29.858 
08:40	38.2	38.2	38.2	77	31.6	3	7	248	0.00	29.858 
08:45	38.3	38.3	38.3	77	31.7	3	6	248	0.00	29.862 
08:50	38.5	38.5	38.5	77	31.9	3	8	248	0.00	29.862 
08:55	38.6	38.6	38.6	77	32.0	2	5	248	0.00	29.862 
09:00	38.8	38.8	38.8	77	32.2	2	6	225	0.00	29.865 
09:05	39.1	39.1	39.1	76	32.2	3	7	248	0.00	29.865 
09:10	39.2	39.2	39.2	76	32.3	2	7	248	0.00	29.865 
09:15	39.5	39.5	39.5	75	32.2	3	6	248	0.00	29.869 
09:20	39.6	39.6	39.6	75	32.3	3	6	248	0.00	29.869 
09:25	39.9	39.9	39.9	75	32.6	2	5	248	0.00	29.869 
09:30	40.1	40.1	40.1	75	32.8	2	5	248	0.00	29.870 
09:35	40.3	40.3	40.3	74	32.7	3	9	248	0.00	29.870 
09:40	40.8	40.8	40.8	73	32.8	3	10	248	0.00	29.870 
09:45	41.1	41.1	41.1	73	33.1	3	8	248	0.00	29.873 
09:50	41.3	41.3	41.3	72	33.0	3	7	248	0.00	29.873 
09:55	41.5	41.5	41.5	73	33.5	3	9	248	0.00	29.873 
10:00	41.6	41.6	41.6	73	33.6	3	7	248	0.00	29.870 
10:05	41.9	39.5	41.9	71	33.2	4	10	248	0.00	29.870 
10:10	42.2	39.9	42.2	71	33.5	4	6	248	0.00	29.870 
10:15	42.5	42.5	42.5	72	34.1	3	7	248	0.00	29.868 
10:20	42.8	40.6	42.8	71	34.1	4	12	248	0.00	29.868 
10:25	43.1	40.1	43.1	69	33.6	5	12	248	0.00	29.868 
10:30	43.3	43.3	43.3	70	34.2	3	9	270	0.00	29.862 
10:35	43.5	43.5	43.5	69	34.0	3	7	248	0.00	29.862 
10:40	43.8	41.7	43.8	69	34.3	4	10	248	0.00	29.862 
10:45	44.1	41.3	44.1	69	34.6	5	11	248	0.00	29.860 
10:50	44.3	42.3	44.3	68	34.4	4	12	248	0.00	29.860 
10:55	44.5	42.5	44.5	67	34.2	4	9	248	0.00	29.860 
11:00	44.8	42.9	44.8	68	34.9	4	12	248	0.00	29.856 
11:05	45.1	43.2	45.1	67	34.8	4	9	270	0.00	29.856 
11:10	45.2	43.3	45.2	67	34.9	4	9	248	0.00	29.856 
11:15	45.7	45.7	45.7	66	35.0	3	8	270	0.00	29.847 
11:20	45.8	44.0	45.8	67	35.5	4	10	248	0.00	29.847 
11:25	46.1	44.4	46.1	67	35.8	4	7	248	0.00	29.847 
11:30	46.2	44.5	46.2	67	35.9	4	9	248	0.00	29.839 
11:35	46.7	46.7	46.7	66	36.0	3	9	248	0.00	29.839 
11:40	46.8	45.2	46.8	65	35.7	4	9	248	0.00	29.839 
11:45	47.1	45.5	47.1	65	35.9	4	10	248	0.00	29.831 
11:50	47.6	47.6	47.6	67	37.2	2	5	248	0.00	29.831 
11:55	47.7	47.7	47.7	66	36.9	3	9	248	0.00	29.831 
12:00	48.0	48.0	48.0	66	37.2	3	6	248	0.00	29.822 
12:05	48.5	48.5	48.5	66	37.7	2	7	292	0.00	29.822 
12:10	48.5	48.5	48.5	66	37.7	2	9	248	0.00	29.822 
12:15	48.6	48.6	48.6	64	37.0	3	9	225	0.00	29.808 
12:20	48.9	48.9	48.9	65	37.7	2	5	248	0.00	29.808 
12:25	49.2	49.2	49.2	64	37.5	2	7	248	0.00	29.808 
12:30	49.2	49.2	49.2	65	37.9	2	5	248	0.00	29.799 
12:35	49.5	49.5	49.5	63	37.4	3	8	270	0.00	29.799 
12:40	49.5	47.6	49.5	61	36.6	5	11	248	0.00	29.799 
12:45	49.8	49.8	49.8	63	37.7	3	7	248	0.00	29.788 
12:50	50.1	50.1	50.1	62	37.6	4	9	248	0.00	29.788 
12:55	50.2	50.2	50.2	62	37.7	4	8	248	0.00	29.788 
13:00	50.5	50.5	50.5	63	38.4	3	7	270	0.00	29.784 
13:05	50.7	50.7	50.7	61	37.7	4	9	248	0.00	29.784 
13:10	50.8	50.8	50.8	60	37.4	4	9	248	0.00	29.784 
13:15	51.1	51.1	51.1	61	38.1	2	6	248	0.00	29.772 
13:20	51.4	51.4	51.4	60	38.0	2	6	225	0.00	29.772 
13:25	51.7	51.7	51.7	59	37.8	4	10	248	0.00	29.772 
13:30	52.0	52.0	52.0	59	38.1	3	10	248	0.00	29.767 
13:35	52.2	52.2	52.2	61	39.2	2	6	248	0.00	29.767 
13:40	52.6	52.6	52.6	62	40.0	2	5	270	0.00	29.767 
13:45	52.8	52.8	52.8	58	38.4	3	9	248	0.00	29.758 
13:50	52.8	52.8	52.8	59	38.9	3	6	248	0.00	29.758 
13:55	53.1	53.1	53.1	59	39.2	2	5	225	0.00	29.758 
14:00	52.9	52.9	52.9	58	38.5	4	10	270	0.00	29.757 
14:05	53.1	53.1	53.1	58	38.7	3	9	270	0.00	29.757 
14:10	53.3	53.3	53.3	57	38.5	4	10	248	0.00	29.757 
14:15	53.3	53.3	53.3	58	38.9	3	7	248	0.00	29.753 
14:20	53.6	53.6	53.6	58	39.2	2	8	270	0.00	29.753 
14:25	53.9	53.9	53.9	60	40.3	1	4	315	0.00	29.753 
14:30	53.6	53.6	53.6	58	39.2	3	6	90	0.00	29.749 
14:35	53.6	53.6	53.6	58	39.2	2	6	248	0.00	29.749 
14:40	53.6	53.6	53.6	58	39.2	2	6	68	0.00	29.749 
14:45	53.8	53.8	53.8	57	38.9	3	9	225	0.00	29.751 
14:50	54.1	54.1	54.1	58	39.7	3	9	248	0.00	29.751 
14:55	54.2	54.2	54.2	57	39.3	3	7	248	0.00	29.751 
15:00	54.4	54.4	54.4	57	39.5	2	7	248	0.00	29.751 
15:05	54.5	54.5	54.5	56	39.1	2	6	270	0.00	29.751 
15:10	54.5	54.5	54.5	54	38.2	3	12	0	0.00	29.751 
15:15	54.5	54.5	54.5	54	38.2	2	6	248	0.00	29.747 
15:20	54.7	54.7	54.7	54	38.4	4	11	248	0.00	29.747 
15:25	54.7	54.7	54.7	54	38.4	3	9	270	0.00	29.747 
15:30	54.7	54.7	54.7	51	36.9	4	14	292	0.00	29.741 
15:35	54.7	54.7	54.7	51	36.9	4	13	270	0.00	29.741 
15:40	54.7	54.7	54.7	52	37.4	2	7	248	0.00	29.741 
15:45	54.7	54.7	54.7	54	38.4	3	7	248	0.00	29.739 
15:50	54.5	54.5	54.5	54	38.2	2	6	248	0.00	29.739 
15:55	54.5	54.5	54.5	54	38.2	3	7	45	0.00	29.739 
16:00	54.5	54.5	54.5	54	38.2	2	6	45	0.00	29.740 
16:05	54.4	54.4	54.4	55	38.6	3	9	90	0.00	29.740 
16:10	54.1	54.1	54.1	55	38.3	3	6	90	0.00	29.740 
16:15	54.1	54.1	54.1	54	37.8	2	6	90	0.00	29.738 
16:20	53.9	53.9	53.9	54	37.6	2	5	112	0.00	29.738 
16:25	53.8	53.8	53.8	54	37.5	4	11	90	0.00	29.738 
16:30	53.6	53.6	53.6	55	37.8	2	5	112	0.00	29.738 
16:35	53.3	53.3	53.3	54	37.1	2	6	68	0.00	29.738 
16:40	53.3	53.3	53.3	54	37.1	3	9	68	0.00	29.738 
16:45	53.2	53.2	53.2	55	37.5	3	5	90	0.00	29.738 
16:50	52.9	52.9	52.9	55	37.2	2	5	90	0.00	29.738 
16:55	52.8	52.8	52.8	53	36.1	3	7	90	0.00	29.738 
17:00	52.5	52.5	52.5	53	35.9	2	7	225	0.00	29.739 
17:05	52.3	52.3	52.3	54	36.2	2	11	90	0.00	29.739 
17:10	52.0	52.0	52.0	54	35.9	2	6	270	0.00	29.739 
17:15	51.7	51.7	51.7	54	35.6	2	5	292	0.00	29.737 
17:20	51.4	51.4	51.4	56	36.2	1	3	292	0.00	29.737 
17:25	51.0	51.0	51.0	56	35.9	2	6	90	0.00	29.737 
17:30	50.7	50.7	50.7	57	36.0	1	4	90	0.00	29.739 
17:35	50.2	50.2	50.2	58	36.0	1	3	270	0.00	29.739 
17:40	49.9	49.9	49.9	58	35.7	1	3	68	0.00	29.739 
17:45	49.8	49.8	49.8	58	35.6	1	3	112	0.00	29.739 
17:50	49.6	49.6	49.6	58	35.4	2	4	90	0.00	29.739 
17:55	49.5	49.5	49.5	59	35.8	1	2	90	0.00	29.739 
18:00	49.5	49.5	49.5	59	35.8	2	4	112	0.00	29.736 
18:05	49.4	49.4	49.4	60	36.1	2	5	112	0.00	29.736 
18:10	49.4	49.4	49.4	60	36.1	2	5	90	0.00	29.736 
18:15	49.1	49.1	49.1	60	35.8	3	6	90	0.00	29.734 
18:20	49.1	49.1	49.1	61	36.2	3	7	90	0.00	29.734 
18:25	48.8	48.8	48.8	61	36.0	2	5	90	0.00	29.734 
18:30	48.5	48.5	48.5	61	35.7	2	4	90	0.00	29.740 
18:35	48.5	48.5	48.5	60	35.3	3	7	90	0.00	29.740 
18:40	48.2	48.2	48.2	60	35.0	2	5	90	0.00	29.740 
18:45	48.2	48.2	48.2	60	35.0	2	6	90	0.00	29.740 
18:50	48.0	48.0	48.0	60	34.8	2	6	68	0.00	29.740 
18:55	48.0	48.0	48.0	60	34.8	2	4	68	0.00	29.740 
19:00	47.9	47.9	47.9	60	34.7	2	5	90	0.00	29.733 
19:05	47.9	47.9	47.9	60	34.7	2	5	90	0.00	29.733 
19:10	47.7	47.7	47.7	60	34.5	2	4	90	0.00	29.733 
19:15	47.6	47.6	47.6	60	34.4	2	6	90	0.00	29.735 
19:20	47.6	47.6	47.6	60	34.4	3	6	112	0.00	29.735 
19:25	47.4	47.4	47.4	60	34.2	2	4	90	0.00	29.735 
19:30	47.3	47.3	47.3	61	34.5	2	4	112	0.00	29.734 
19:35	47.1	47.1	47.1	60	33.9	2	5	112	0.00	29.734 
19:40	47.0	47.0	47.0	60	33.8	2	4	112	0.00	29.734 
19:45	46.8	46.8	46.8	60	33.7	1	4	112	0.00	29.730 
19:50	46.7	46.7	46.7	60	33.6	1	4	112	0.00	29.730 
19:55	46.5	46.5	46.5	60	33.4	2	4	112	0.00	29.730 
20:00	46.4	46.4	46.4	60	33.3	2	3	112	0.00	29.727 
20:05	46.2	46.2	46.2	61	33.5	2	6	112	0.00	29.727 
20:10	46.1	46.1	46.1	61	33.4	2	4	112	0.00	29.727 
20:15	46.1	46.1	46.1	62	33.8	2	5	90	0.00	29.725 
20:20	46.1	46.1	46.1	62	33.8	3	7	90	0.00	29.725 
20:25	46.1	46.1	46.1	62	33.8	2	5	90	0.00	29.725 
20:30	45.8	45.8	45.8	63	33.9	2	4	90	0.00	29.715 
20:35	45.8	45.8	45.8	63	33.9	3	10	90	0.00	29.715 
20:40	45.8	45.8	45.8	63	33.9	2	5	112	0.00	29.715 
20:45	45.8	45.8	45.8	63	33.9	2	6	90	0.00	29.712 
20:50	45.8	45.8	45.8	64	34.3	3	6	90	0.00	29.712 
20:55	45.7	45.7	45.7	64	34.2	2	7	90	0.00	29.712 
21:00	45.7	45.7	45.7	64	34.2	3	6	90	0.00	29.711 
21:05	46.0	46.0	46.0	64	34.5	3	7	90	0.00	29.711 
21:10	46.0	44.2	46.0	64	34.5	4	9	90	0.00	29.711 
21:15	46.0	46.0	46.0	64	34.5	2	9	90	0.00	29.700 
21:20	46.0	46.0	46.0	64	34.5	3	5	90	0.00	29.700 
21:25	46.0	46.0	46.0	64	34.5	3	6	90	0.00	29.700 
21:30	46.1	46.1	46.1	64	34.6	3	7	112	0.00	29.695 
21:35	46.2	44.5	46.2	63	34.3	4	8	90	0.00	29.695 
21:40	46.4	46.4	46.4	63	34.5	3	8	90	0.00	29.695 
21:45	46.7	45.1	46.7	62	34.4	4	7	90	0.00	29.686 
21:50	46.8	45.2	46.8	62	34.5	4	10	90	0.00	29.686 
21:55	47.0	45.4	47.0	62	34.7	4	11	90	0.00	29.686 
22:00	46.8	46.8	46.8	62	34.5	3	5	90	0.00	29.679 
22:05	46.7	46.7	46.7	62	34.4	3	10	90	0.00	29.679 
22:10	46.7	46.7	46.7	62	34.4	3	6	90	0.00	29.679 
22:15	46.8	46.8	46.8	62	34.5	3	9	90	0.00	29.671 
22:20	47.0	47.0	47.0	62	34.7	3	7	90	0.00	29.671 
22:25	47.0	47.0	47.0	62	34.7	3	6	90	0.00	29.671 
22:30	47.0	47.0	47.0	62	34.7	2	5	90	0.00	29.667 
22:35	46.8	46.8	46.8	63	34.9	2	4	90	0.00	29.667 
22:40	46.8	46.8	46.8	63	34.9	3	5	90	0.00	29.667 
22:45	46.8	46.8	46.8	63	34.9	3	6	90	0.00	29.659 
22:50	46.8	46.8	46.8	63	34.9	3	7	90	0.00	29.659 
22:55	46.8	46.8	46.8	63	34.9	3	6	90	0.00	29.659 
23:00	46.7	46.7	46.7	64	35.2	3	6	90	0.00	29.659 
23:05	46.7	46.7	46.7	64	35.2	3	9	90	0.00	29.659 
23:10	46.8	46.8	46.8	64	35.3	2	6	90	0.00	29.659 
23:15	46.8	46.8	46.8	64	35.3	3	6	68	0.00	29.655 
23:20	46.7	46.7	46.7	65	35.6	1	4	68	0.00	29.655 
23:25	46.5	46.5	46.5	65	35.4	2	4	248	0.00	29.655 
23:30	46.5	46.5	46.5	65	35.4	2	7	248	0.00	29.677 
23:35	46.5	46.5	46.5	65	35.4	2	4	248	0.00	29.677 
23:40	46.8	46.8	46.8	65	35.7	2	5	248	0.00	29.677 
23:45	47.0	47.0	47.0	65	35.9	2	5	225	0.00	29.687 
23:50	47.1	47.1	47.1	65	35.9	1	3	248	0.00	29.687 
23:55	47.1	47.1	47.1	66	36.3	1	4	248	0.00	29.687 

CoCoRaHS
IN-AL-39
A2 Web Hosting
Creative Commons License
GoDaddy
Look for:

loaded 2017-12-12 07:08:56 • last modified 2010-11-18 10:43:29
Privacy PolicyDisclaimer
• wx.awcolley.com is powered by PmWiki v.2002016 •
• all content (unless otherwise noted) © 2017 A W Colley